Terminal Aerodrome Forecast
Issued by NWS Detroit/Pontiac, MI

Home | Current Version | Previous Version | Text Only | Print | Product List | Glossary On
Versions: 1 2 3 4 5 6 7 8 9 10 11 12 13 14 15 16
000
FTUS43 KDTX 230800 AAA
TAFFNT
TAF AMD
KFNT 230832Z 2309/2406 36012KT P6SM BKN015 OVC022
     FM231600 01013KT P6SM SCT035 OVC045
     FM240100 36006KT P6SM SCT060=

USA.gov is the U.S. government's official web portal to all federal, state and local government web resources and services.